sensor_id;sensor_type;location;lat;lon;timestamp;P1;P2;P0
52290;PMS5003;39663;45.432;28.050;2022-07-31T00:07:35;15.0;15.0;
52290;PMS5003;39663;45.432;28.050;2022-07-31T00:08:07;22.0;21.0;
52290;PMS5003;39663;45.432;28.050;2022-07-31T00:08:39;14.0;13.0;
52290;PMS5003;39663;45.432;28.050;2022-07-31T00:09:10;15.0;15.0;
52290;PMS5003;39663;45.432;28.050;2022-07-31T00:09:42;15.0;15.0;
52290;PMS5003;39663;45.432;28.050;2022-07-31T00:10:13;18.0;18.0;
52290;PMS5003;39663;45.432;28.050;2022-07-31T00:10:45;20.0;19.0;
52290;PMS5003;39663;45.432;28.050;2022-07-31T00:11:17;23.0;19.0;
52290;PMS5003;39663;45.432;28.050;2022-07-31T00:11:48;20.0;19.0;
52290;PMS5003;39663;45.432;28.050;2022-07-31T00:12:20;21.0;18.0;
52290;PMS5003;39663;45.432;28.050;2022-07-31T00:12:52;20.0;20.0;
52290;PMS5003;39663;45.432;28.050;2022-07-31T00:13:23;18.0;17.0;
52290;PMS5003;39663;45.432;28.050;2022-07-31T00:13:55;18.0;18.0;
52290;PMS5003;39663;45.432;28.050;2022-07-31T00:14:26;16.0;16.0;
52290;PMS5003;39663;45.432;28.050;2022-07-31T00:14:57;18.0;15.0;
52290;PMS5003;39663;45.432;28.050;2022-07-31T00:15:29;17.0;17.0;
52290;PMS5003;39663;45.432;28.050;2022-07-31T00:16:00;16.0;16.0;
52290;PMS5003;39663;45.432;28.050;2022-07-31T00:16:32;19.0;16.0;
52290;PMS5003;39663;45.432;28.050;2022-07-31T00:17:03;18.0;18.0;
52290;PMS5003;39663;45.432;28.050;2022-07-31T00:17:34;19.0;18.0;
52290;PMS5003;39663;45.432;28.050;2022-07-31T00:18:08;19.0;17.0;
52290;PMS5003;39663;45.432;28.050;2022-07-31T00:18:39;18.0;18.0;
52290;PMS5003;39663;45.432;28.050;2022-07-31T00:19:11;20.0;18.0;
52290;PMS5003;39663;45.432;28.050;2022-07-31T00:19:42;21.0;20.0;
52290;PMS5003;39663;45.432;28.050;2022-07-31T00:20:15;22.0;20.0;
52290;PMS5003;39663;45.432;28.050;2022-07-31T00:20:47;17.0;16.0;
52290;PMS5003;39663;45.432;28.050;2022-07-31T00:21:18;23.0;22.0;
52290;PMS5003;39663;45.432;28.050;2022-07-31T00:21:50;16.0;16.0;
52290;PMS5003;39663;45.432;28.050;2022-07-31T00:22:21;24.0;23.0;
52290;PMS5003;39663;45.432;28.050;2022-07-31T00:22:54;17.0;17.0;
52290;PMS5003;39663;45.432;28.050;2022-07-31T00:23:26;22.0;17.0;
52290;PMS5003;39663;45.432;28.050;2022-07-31T00:23:57;21.0;20.0;
52290;PMS5003;39663;45.432;28.050;2022-07-31T00:24:28;16.0;14.0;
52290;PMS5003;39663;45.432;28.050;2022-07-31T00:25:00;15.0;15.0;
52290;PMS5003;39663;45.432;28.050;2022-07-31T00:25:31;16.0;16.0;
52290;PMS5003;39663;45.432;28.050;2022-07-31T00:26:03;14.0;14.0;
52290;PMS5003;39663;45.432;28.050;2022-07-31T00:26:34;18.0;18.0;
52290;PMS5003;39663;45.432;28.050;2022-07-31T00:27:06;21.0;19.0;
52290;PMS5003;39663;45.432;28.050;2022-07-31T00:27:38;17.0;16.0;
52290;PMS5003;39663;45.432;28.050;2022-07-31T00:28:10;17.0;17.0;
52290;PMS5003;39663;45.432;28.050;2022-07-31T00:28:41;19.0;19.0;
52290;PMS5003;39663;45.432;28.050;2022-07-31T00:29:13;18.0;18.0;
52290;PMS5003;39663;45.432;28.050;2022-07-31T00:29:44;21.0;21.0;
52290;PMS5003;39663;45.432;28.050;2022-07-31T00:30:15;17.0;16.0;
52290;PMS5003;39663;45.432;28.050;2022-07-31T00:30:47;21.0;18.0;
52290;PMS5003;39663;45.432;28.050;2022-07-31T00:31:18;16.0;16.0;
52290;PMS5003;39663;45.432;28.050;2022-07-31T00:31:50;16.0;15.0;
52290;PMS5003;39663;45.432;28.050;2022-07-31T00:32:21;17.0;15.0;
52290;PMS5003;39663;45.432;28.050;2022-07-31T00:32:53;20.0;20.0;
52290;PMS5003;39663;45.432;28.050;2022-07-31T00:33:24;20.0;20.0;
52290;PMS5003;39663;45.432;28.050;2022-07-31T00:33:56;16.0;15.0;
52290;PMS5003;39663;45.432;28.050;2022-07-31T00:34:28;19.0;18.0;
52290;PMS5003;39663;45.432;28.050;2022-07-31T00:34:59;19.0;16.0;
52290;PMS5003;39663;45.432;28.050;2022-07-31T00:35:31;17.0;15.0;
52290;PMS5003;39663;45.432;28.050;2022-07-31T00:36:03;18.0;16.0;
52290;PMS5003;39663;45.432;28.050;2022-07-31T00:36:34;23.0;21.0;
52290;PMS5003;39663;45.432;28.050;2022-07-31T00:37:06;18.0;16.0;
52290;PMS5003;39663;45.432;28.050;2022-07-31T00:37:37;18.0;15.0;
52290;PMS5003;39663;45.432;28.050;2022-07-31T00:38:08;14.0;13.0;
52290;PMS5003;39663;45.432;28.050;2022-07-31T00:38:40;22.0;17.0;
52290;PMS5003;39663;45.432;28.050;2022-07-31T00:39:16;18.0;18.0;
52290;PMS5003;39663;45.432;28.050;2022-07-31T00:39:48;15.0;15.0;
52290;PMS5003;39663;45.432;28.050;2022-07-31T00:40:19;17.0;16.0;
52290;PMS5003;39663;45.432;28.050;2022-07-31T00:40:51;18.0;16.0;
52290;PMS5003;39663;45.432;28.050;2022-07-31T00:41:22;14.0;14.0;
52290;PMS5003;39663;45.432;28.050;2022-07-31T00:41:54;15.0;15.0;
52290;PMS5003;39663;45.432;28.050;2022-07-31T00:42:25;16.0;16.0;
52290;PMS5003;39663;45.432;28.050;2022-07-31T00:42:57;18.0;17.0;
52290;PMS5003;39663;45.432;28.050;2022-07-31T00:43:28;20.0;17.0;
52290;PMS5003;39663;45.432;28.050;2022-07-31T00:44:00;13.0;13.0;
52290;PMS5003;39663;45.432;28.050;2022-07-31T00:44:32;18.0;17.0;
52290;PMS5003;39663;45.432;28.050;2022-07-31T00:45:04;23.0;23.0;
52290;PMS5003;39663;45.432;28.050;2022-07-31T00:45:36;18.0;16.0;
52290;PMS5003;39663;45.432;28.050;2022-07-31T00:46:08;18.0;16.0;
52290;PMS5003;39663;45.432;28.050;2022-07-31T00:46:39;15.0;15.0;
52290;PMS5003;39663;45.432;28.050;2022-07-31T00:47:11;21.0;18.0;
52290;PMS5003;39663;45.432;28.050;2022-07-31T00:47:43;17.0;17.0;
52290;PMS5003;39663;45.432;28.050;2022-07-31T00:48:14;16.0;15.0;
52290;PMS5003;39663;45.432;28.050;2022-07-31T00:48:46;14.0;14.0;
52290;PMS5003;39663;45.432;28.050;2022-07-31T00:49:17;19.0;19.0;
52290;PMS5003;39663;45.432;28.050;2022-07-31T00:49:49;18.0;17.0;
52290;PMS5003;39663;45.432;28.050;2022-07-31T00:50:21;16.0;15.0;
52290;PMS5003;39663;45.432;28.050;2022-07-31T00:50:52;16.0;16.0;
52290;PMS5003;39663;45.432;28.050;2022-07-31T00:51:24;17.0;17.0;
52290;PMS5003;39663;45.432;28.050;2022-07-31T00:51:55;14.0;14.0;
52290;PMS5003;39663;45.432;28.050;2022-07-31T00:52:26;16.0;16.0;
52290;PMS5003;39663;45.432;28.050;2022-07-31T00:52:58;15.0;15.0;
52290;PMS5003;39663;45.432;28.050;2022-07-31T00:53:30;16.0;16.0;
52290;PMS5003;39663;45.432;28.050;2022-07-31T00:54:01;16.0;14.0;
52290;PMS5003;39663;45.432;28.050;2022-07-31T00:54:33;23.0;21.0;
52290;PMS5003;39663;45.432;28.050;2022-07-31T00:55:05;18.0;17.0;
52290;PMS5003;39663;45.432;28.050;2022-07-31T00:55:42;16.0;15.0;
52290;PMS5003;39663;45.432;28.050;2022-07-31T00:56:14;19.0;17.0;
52290;PMS5003;39663;45.432;28.050;2022-07-31T00:56:45;17.0;17.0;
52290;PMS5003;39663;45.432;28.050;2022-07-31T00:57:17;16.0;16.0;
52290;PMS5003;39663;45.432;28.050;2022-07-31T00:57:48;21.0;19.0;
52290;PMS5003;39663;45.432;28.050;2022-07-31T00:58:20;18.0;16.0;
52290;PMS5003;39663;45.432;28.050;2022-07-31T00:58:52;15.0;15.0;
52290;PMS5003;39663;45.432;28.050;2022-07-31T00:59:24;16.0;15.0;
52290;PMS5003;39663;45.432;28.050;2022-07-31T00:59:57;15.0;15.0;
52290;PMS5003;39663;45.432;28.050;2022-07-31T01:00:28;16.0;16.0;
52290;PMS5003;39663;45.432;28.050;2022-07-31T01:01:14;20.0;16.0;
52290;PMS5003;39663;45.432;28.050;2022-07-31T01:01:46;17.0;14.0;
52290;PMS5003;39663;45.432;28.050;2022-07-31T01:02:17;18.0;18.0;
52290;PMS5003;39663;45.432;28.050;2022-07-31T01:02:49;17.0;17.0;
52290;PMS5003;39663;45.432;28.050;2022-07-31T01:03:25;18.0;18.0;
52290;PMS5003;39663;45.432;28.050;2022-07-31T01:03:57;16.0;16.0;
52290;PMS5003;39663;45.432;28.050;2022-07-31T01:04:29;19.0;19.0;
52290;PMS5003;39663;45.432;28.050;2022-07-31T01:05:06;15.0;15.0;
52290;PMS5003;39663;45.432;28.050;2022-07-31T01:05:38;14.0;14.0;
52290;PMS5003;39663;45.432;28.050;2022-07-31T01:06:09;19.0;17.0;
52290;PMS5003;39663;45.432;28.050;2022-07-31T01:06:41;15.0;15.0;
52290;PMS5003;39663;45.432;28.050;2022-07-31T01:07:12;17.0;15.0;
52290;PMS5003;39663;45.432;28.050;2022-07-31T01:07:44;18.0;15.0;
52290;PMS5003;39663;45.432;28.050;2022-07-31T01:08:16;19.0;18.0;
52290;PMS5003;39663;45.432;28.050;2022-07-31T01:08:47;20.0;17.0;
52290;PMS5003;39663;45.432;28.050;2022-07-31T01:09:19;18.0;18.0;
52290;PMS5003;39663;45.432;28.050;2022-07-31T01:09:51;14.0;14.0;
52290;PMS5003;39663;45.432;28.050;2022-07-31T01:10:27;16.0;15.0;
52290;PMS5003;39663;45.432;28.050;2022-07-31T01:11:13;17.0;17.0;
52290;PMS5003;39663;45.432;28.050;2022-07-31T01:11:50;22.0;16.0;
52290;PMS5003;39663;45.432;28.050;2022-07-31T01:12:37;21.0;17.0;
52290;PMS5003;39663;45.432;28.050;2022-07-31T01:13:17;19.0;19.0;
52290;PMS5003;39663;45.432;28.050;2022-07-31T01:13:55;15.0;15.0;
52290;PMS5003;39663;45.432;28.050;2022-07-31T01:14:38;22.0;17.0;
52290;PMS5003;39663;45.432;28.050;2022-07-31T01:15:13;15.0;15.0;
52290;PMS5003;39663;45.432;28.050;2022-07-31T01:15:45;19.0;16.0;
52290;PMS5003;39663;45.432;28.050;2022-07-31T01:16:18;19.0;19.0;
52290;PMS5003;39663;45.432;28.050;2022-07-31T01:16:54;20.0;20.0;
52290;PMS5003;39663;45.432;28.050;2022-07-31T01:17:28;20.0;15.0;
52290;PMS5003;39663;45.432;28.050;2022-07-31T01:18:01;20.0;18.0;
52290;PMS5003;39663;45.432;28.050;2022-07-31T01:18:35;18.0;18.0;
52290;PMS5003;39663;45.432;28.050;2022-07-31T01:19:11;21.0;18.0;
52290;PMS5003;39663;45.432;28.050;2022-07-31T01:19:51;18.0;16.0;
52290;PMS5003;39663;45.432;28.050;2022-07-31T01:20:23;15.0;15.0;
52290;PMS5003;39663;45.432;28.050;2022-07-31T01:20:56;16.0;14.0;
52290;PMS5003;39663;45.432;28.050;2022-07-31T01:21:34;17.0;17.0;
52290;PMS5003;39663;45.432;28.050;2022-07-31T01:22:18;14.0;14.0;
52290;PMS5003;39663;45.432;28.050;2022-07-31T01:23:17;17.0;17.0;
52290;PMS5003;39663;45.432;28.050;2022-07-31T01:24:13;23.0;17.0;
52290;PMS5003;39663;45.432;28.050;2022-07-31T01:24:59;20.0;20.0;
52290;PMS5003;39663;45.432;28.050;2022-07-31T01:25:42;20.0;19.0;
52290;PMS5003;39663;45.432;28.050;2022-07-31T01:26:26;21.0;18.0;
52290;PMS5003;39663;45.432;28.050;2022-07-31T01:27:09;18.0;18.0;
52290;PMS5003;39663;45.432;28.050;2022-07-31T01:27:57;18.0;17.0;
52290;PMS5003;39663;45.432;28.050;2022-07-31T01:28:40;14.0;14.0;
52290;PMS5003;39663;45.432;28.050;2022-07-31T01:29:23;16.0;16.0;
52290;PMS5003;39663;45.432;28.050;2022-07-31T01:29:58;19.0;19.0;
52290;PMS5003;39663;45.432;28.050;2022-07-31T01:30:34;16.0;16.0;
52290;PMS5003;39663;45.432;28.050;2022-07-31T01:31:10;18.0;15.0;
52290;PMS5003;39663;45.432;28.050;2022-07-31T01:31:47;18.0;18.0;
52290;PMS5003;39663;45.432;28.050;2022-07-31T01:32:24;15.0;15.0;
52290;PMS5003;39663;45.432;28.050;2022-07-31T01:32:59;15.0;14.0;
52290;PMS5003;39663;45.432;28.050;2022-07-31T01:33:39;15.0;15.0;
52290;PMS5003;39663;45.432;28.050;2022-07-31T01:34:21;25.0;22.0;
52290;PMS5003;39663;45.432;28.050;2022-07-31T01:34:59;21.0;20.0;
52290;PMS5003;39663;45.432;28.050;2022-07-31T01:35:35;18.0;18.0;
52290;PMS5003;39663;45.432;28.050;2022-07-31T01:36:12;19.0;17.0;
52290;PMS5003;39663;45.432;28.050;2022-07-31T01:36:52;23.0;22.0;
52290;PMS5003;39663;45.432;28.050;2022-07-31T01:37:30;16.0;16.0;
52290;PMS5003;39663;45.432;28.050;2022-07-31T01:38:08;16.0;16.0;
52290;PMS5003;39663;45.432;28.050;2022-07-31T01:38:44;24.0;23.0;
52290;PMS5003;39663;45.432;28.050;2022-07-31T01:39:20;21.0;19.0;
52290;PMS5003;39663;45.432;28.050;2022-07-31T01:39:53;16.0;15.0;
52290;PMS5003;39663;45.432;28.050;2022-07-31T01:40:31;19.0;17.0;
52290;PMS5003;39663;45.432;28.050;2022-07-31T01:41:05;17.0;17.0;
52290;PMS5003;39663;45.432;28.050;2022-07-31T01:41:41;17.0;16.0;
52290;PMS5003;39663;45.432;28.050;2022-07-31T01:42:16;23.0;17.0;
52290;PMS5003;39663;45.432;28.050;2022-07-31T01:42:51;20.0;18.0;
52290;PMS5003;39663;45.432;28.050;2022-07-31T01:43:27;18.0;17.0;
52290;PMS5003;39663;45.432;28.050;2022-07-31T01:44:02;22.0;19.0;
52290;PMS5003;39663;45.432;28.050;2022-07-31T01:44:37;22.0;17.0;
52290;PMS5003;39663;45.432;28.050;2022-07-31T01:45:13;17.0;16.0;
52290;PMS5003;39663;45.432;28.050;2022-07-31T01:45:50;20.0;17.0;
52290;PMS5003;39663;45.432;28.050;2022-07-31T01:46:25;19.0;17.0;
52290;PMS5003;39663;45.432;28.050;2022-07-31T01:46:58;19.0;17.0;
52290;PMS5003;39663;45.432;28.050;2022-07-31T01:47:30;22.0;22.0;
52290;PMS5003;39663;45.432;28.050;2022-07-31T01:48:04;19.0;18.0;
52290;PMS5003;39663;45.432;28.050;2022-07-31T01:48:37;17.0;15.0;
52290;PMS5003;39663;45.432;28.050;2022-07-31T01:49:10;18.0;18.0;
52290;PMS5003;39663;45.432;28.050;2022-07-31T01:49:44;17.0;17.0;
52290;PMS5003;39663;45.432;28.050;2022-07-31T01:50:18;21.0;20.0;
52290;PMS5003;39663;45.432;28.050;2022-07-31T01:50:53;16.0;16.0;
52290;PMS5003;39663;45.432;28.050;2022-07-31T01:51:26;23.0;23.0;
52290;PMS5003;39663;45.432;28.050;2022-07-31T01:52:01;20.0;18.0;
52290;PMS5003;39663;45.432;28.050;2022-07-31T01:52:34;24.0;20.0;
52290;PMS5003;39663;45.432;28.050;2022-07-31T01:53:09;19.0;19.0;
52290;PMS5003;39663;45.432;28.050;2022-07-31T01:53:44;21.0;19.0;
52290;PMS5003;39663;45.432;28.050;2022-07-31T01:54:18;15.0;14.0;
52290;PMS5003;39663;45.432;28.050;2022-07-31T01:54:51;23.0;21.0;
52290;PMS5003;39663;45.432;28.050;2022-07-31T01:55:24;16.0;16.0;
52290;PMS5003;39663;45.432;28.050;2022-07-31T01:55:57;21.0;17.0;
52290;PMS5003;39663;45.432;28.050;2022-07-31T01:56:29;18.0;17.0;
52290;PMS5003;39663;45.432;28.050;2022-07-31T01:57:03;23.0;22.0;
52290;PMS5003;39663;45.432;28.050;2022-07-31T01:57:37;17.0;17.0;
52290;PMS5003;39663;45.432;28.050;2022-07-31T01:58:11;20.0;19.0;
52290;PMS5003;39663;45.432;28.050;2022-07-31T01:58:47;22.0;19.0;
52290;PMS5003;39663;45.432;28.050;2022-07-31T01:59:20;20.0;19.0;
52290;PMS5003;39663;45.432;28.050;2022-07-31T01:59:53;19.0;19.0;
52290;PMS5003;39663;45.432;28.050;2022-07-31T02:00:28;24.0;21.0;
52290;PMS5003;39663;45.432;28.050;2022-07-31T02:01:00;26.0;22.0;
52290;PMS5003;39663;45.432;28.050;2022-07-31T02:01:33;25.0;25.0;
52290;PMS5003;39663;45.432;28.050;2022-07-31T02:02:08;21.0;20.0;
52290;PMS5003;39663;45.432;28.050;2022-07-31T02:02:40;18.0;18.0;
52290;PMS5003;39663;45.432;28.050;2022-07-31T02:03:14;28.0;26.0;
52290;PMS5003;39663;45.432;28.050;2022-07-31T02:03:47;20.0;20.0;
52290;PMS5003;39663;45.432;28.050;2022-07-31T02:04:20;20.0;20.0;
52290;PMS5003;39663;45.432;28.050;2022-07-31T02:04:52;20.0;19.0;
52290;PMS5003;39663;45.432;28.050;2022-07-31T02:05:24;21.0;21.0;
52290;PMS5003;39663;45.432;28.050;2022-07-31T02:05:57;23.0;22.0;
52290;PMS5003;39663;45.432;28.050;2022-07-31T02:06:30;23.0;21.0;
52290;PMS5003;39663;45.432;28.050;2022-07-31T02:07:02;29.0;27.0;
52290;PMS5003;39663;45.432;28.050;2022-07-31T02:07:35;21.0;21.0;
52290;PMS5003;39663;45.432;28.050;2022-07-31T02:08:10;23.0;23.0;
52290;PMS5003;39663;45.432;28.050;2022-07-31T02:08:44;31.0;28.0;
52290;PMS5003;39663;45.432;28.050;2022-07-31T02:09:18;25.0;25.0;
52290;PMS5003;39663;45.432;28.050;2022-07-31T02:09:53;25.0;22.0;
52290;PMS5003;39663;45.432;28.050;2022-07-31T02:10:25;26.0;26.0;
52290;PMS5003;39663;45.432;28.050;2022-07-31T02:10:58;24.0;24.0;
52290;PMS5003;39663;45.432;28.050;2022-07-31T02:11:31;24.0;22.0;
52290;PMS5003;39663;45.432;28.050;2022-07-31T02:12:04;22.0;22.0;
52290;PMS5003;39663;45.432;28.050;2022-07-31T02:12:37;26.0;26.0;
52290;PMS5003;39663;45.432;28.050;2022-07-31T02:13:42;24.0;24.0;
52290;PMS5003;39663;45.432;28.050;2022-07-31T02:14:15;26.0;26.0;
52290;PMS5003;39663;45.432;28.050;2022-07-31T02:14:48;22.0;19.0;
52290;PMS5003;39663;45.432;28.050;2022-07-31T02:15:21;30.0;29.0;
52290;PMS5003;39663;45.432;28.050;2022-07-31T02:15:53;23.0;23.0;
52290;PMS5003;39663;45.432;28.050;2022-07-31T02:16:27;22.0;22.0;
52290;PMS5003;39663;45.432;28.050;2022-07-31T02:17:00;26.0;23.0;
52290;PMS5003;39663;45.432;28.050;2022-07-31T02:17:32;22.0;22.0;
52290;PMS5003;39663;45.432;28.050;2022-07-31T02:18:05;22.0;22.0;
52290;PMS5003;39663;45.432;28.050;2022-07-31T02:18:39;24.0;23.0;
52290;PMS5003;39663;45.432;28.050;2022-07-31T02:19:13;29.0;28.0;
52290;PMS5003;39663;45.432;28.050;2022-07-31T02:19:46;23.0;23.0;
52290;PMS5003;39663;45.432;28.050;2022-07-31T02:20:21;26.0;26.0;
52290;PMS5003;39663;45.432;28.050;2022-07-31T02:20:54;28.0;28.0;
52290;PMS5003;39663;45.432;28.050;2022-07-31T02:21:26;28.0;23.0;
52290;PMS5003;39663;45.432;28.050;2022-07-31T02:21:58;26.0;24.0;
52290;PMS5003;39663;45.432;28.050;2022-07-31T02:22:29;26.0;25.0;
52290;PMS5003;39663;45.432;28.050;2022-07-31T02:23:01;26.0;25.0;
52290;PMS5003;39663;45.432;28.050;2022-07-31T02:23:33;21.0;21.0;
52290;PMS5003;39663;45.432;28.050;2022-07-31T02:24:05;29.0;27.0;
52290;PMS5003;39663;45.432;28.050;2022-07-31T02:24:37;27.0;25.0;
52290;PMS5003;39663;45.432;28.050;2022-07-31T02:25:09;23.0;22.0;
52290;PMS5003;39663;45.432;28.050;2022-07-31T02:25:40;26.0;25.0;
52290;PMS5003;39663;45.432;28.050;2022-07-31T02:26:14;26.0;23.0;
52290;PMS5003;39663;45.432;28.050;2022-07-31T02:26:46;25.0;25.0;
52290;PMS5003;39663;45.432;28.050;2022-07-31T02:27:18;23.0;22.0;
52290;PMS5003;39663;45.432;28.050;2022-07-31T02:27:51;24.0;22.0;
52290;PMS5003;39663;45.432;28.050;2022-07-31T02:28:24;25.0;24.0;
52290;PMS5003;39663;45.432;28.050;2022-07-31T02:28:57;22.0;21.0;
52290;PMS5003;39663;45.432;28.050;2022-07-31T02:29:30;28.0;28.0;
52290;PMS5003;39663;45.432;28.050;2022-07-31T02:30:04;25.0;25.0;
52290;PMS5003;39663;45.432;28.050;2022-07-31T02:30:36;22.0;22.0;
52290;PMS5003;39663;45.432;28.050;2022-07-31T02:31:11;26.0;25.0;
52290;PMS5003;39663;45.432;28.050;2022-07-31T02:31:44;23.0;23.0;
52290;PMS5003;39663;45.432;28.050;2022-07-31T02:32:17;26.0;26.0;
52290;PMS5003;39663;45.432;28.050;2022-07-31T02:32:49;24.0;24.0;
52290;PMS5003;39663;45.432;28.050;2022-07-31T02:33:23;26.0;26.0;
52290;PMS5003;39663;45.432;28.050;2022-07-31T02:33:56;22.0;22.0;
52290;PMS5003;39663;45.432;28.050;2022-07-31T02:34:27;25.0;24.0;
52290;PMS5003;39663;45.432;28.050;2022-07-31T02:35:00;26.0;23.0;
52290;PMS5003;39663;45.432;28.050;2022-07-31T02:35:33;25.0;22.0;
52290;PMS5003;39663;45.432;28.050;2022-07-31T02:36:04;28.0;27.0;
52290;PMS5003;39663;45.432;28.050;2022-07-31T02:36:38;25.0;23.0;
52290;PMS5003;39663;45.432;28.050;2022-07-31T02:37:10;26.0;26.0;
52290;PMS5003;39663;45.432;28.050;2022-07-31T02:37:43;24.0;22.0;
52290;PMS5003;39663;45.432;28.050;2022-07-31T02:38:17;21.0;21.0;
52290;PMS5003;39663;45.432;28.050;2022-07-31T02:38:51;26.0;24.0;
52290;PMS5003;39663;45.432;28.050;2022-07-31T02:39:25;25.0;23.0;
52290;PMS5003;39663;45.432;28.050;2022-07-31T02:39:58;24.0;23.0;
52290;PMS5003;39663;45.432;28.050;2022-07-31T02:40:30;27.0;25.0;
52290;PMS5003;39663;45.432;28.050;2022-07-31T02:41:03;19.0;19.0;
52290;PMS5003;39663;45.432;28.050;2022-07-31T02:41:36;23.0;22.0;
52290;PMS5003;39663;45.432;28.050;2022-07-31T02:42:08;26.0;26.0;
52290;PMS5003;39663;45.432;28.050;2022-07-31T02:42:40;30.0;27.0;
52290;PMS5003;39663;45.432;28.050;2022-07-31T02:43:12;25.0;22.0;
52290;PMS5003;39663;45.432;28.050;2022-07-31T02:43:45;24.0;24.0;
52290;PMS5003;39663;45.432;28.050;2022-07-31T02:44:18;28.0;26.0;
52290;PMS5003;39663;45.432;28.050;2022-07-31T02:44:50;24.0;24.0;
52290;PMS5003;39663;45.432;28.050;2022-07-31T02:45:28;23.0;23.0;
52290;PMS5003;39663;45.432;28.050;2022-07-31T02:46:01;26.0;23.0;
52290;PMS5003;39663;45.432;28.050;2022-07-31T02:46:34;28.0;26.0;
52290;PMS5003;39663;45.432;28.050;2022-07-31T02:47:06;29.0;26.0;
52290;PMS5003;39663;45.432;28.050;2022-07-31T02:47:38;25.0;24.0;
52290;PMS5003;39663;45.432;28.050;2022-07-31T02:48:10;26.0;23.0;
52290;PMS5003;39663;45.432;28.050;2022-07-31T02:48:42;25.0;24.0;
52290;PMS5003;39663;45.432;28.050;2022-07-31T02:49:14;23.0;23.0;
52290;PMS5003;39663;45.432;28.050;2022-07-31T02:49:46;24.0;22.0;
52290;PMS5003;39663;45.432;28.050;2022-07-31T02:50:17;27.0;26.0;
52290;PMS5003;39663;45.432;28.050;2022-07-31T02:50:50;26.0;25.0;
52290;PMS5003;39663;45.432;28.050;2022-07-31T02:51:22;29.0;28.0;
52290;PMS5003;39663;45.432;28.050;2022-07-31T02:51:53;24.0;22.0;
52290;PMS5003;39663;45.432;28.050;2022-07-31T02:52:25;24.0;22.0;
52290;PMS5003;39663;45.432;28.050;2022-07-31T02:52:58;32.0;29.0;
52290;PMS5003;39663;45.432;28.050;2022-07-31T02:53:31;26.0;26.0;
52290;PMS5003;39663;45.432;28.050;2022-07-31T02:54:04;28.0;26.0;
52290;PMS5003;39663;45.432;28.050;2022-07-31T02:54:37;24.0;22.0;
52290;PMS5003;39663;45.432;28.050;2022-07-31T02:55:10;29.0;27.0;
52290;PMS5003;39663;45.432;28.050;2022-07-31T02:55:42;26.0;26.0;
52290;PMS5003;39663;45.432;28.050;2022-07-31T02:56:14;31.0;28.0;
52290;PMS5003;39663;45.432;28.050;2022-07-31T02:56:46;25.0;23.0;
52290;PMS5003;39663;45.432;28.050;2022-07-31T02:57:19;25.0;24.0;
52290;PMS5003;39663;45.432;28.050;2022-07-31T02:57:50;25.0;22.0;
52290;PMS5003;39663;45.432;28.050;2022-07-31T02:58:21;24.0;21.0;
52290;PMS5003;39663;45.432;28.050;2022-07-31T02:58:53;25.0;25.0;
52290;PMS5003;39663;45.432;28.050;2022-07-31T02:59:24;25.0;23.0;
52290;PMS5003;39663;45.432;28.050;2022-07-31T02:59:56;23.0;23.0;
52290;PMS5003;39663;45.432;28.050;2022-07-31T03:00:28;29.0;28.0;
52290;PMS5003;39663;45.432;28.050;2022-07-31T03:01:00;31.0;25.0;
52290;PMS5003;39663;45.432;28.050;2022-07-31T03:01:35;24.0;24.0;
52290;PMS5003;39663;45.432;28.050;2022-07-31T03:02:07;29.0;26.0;
52290;PMS5003;39663;45.432;28.050;2022-07-31T03:02:39;26.0;25.0;
52290;PMS5003;39663;45.432;28.050;2022-07-31T03:03:15;27.0;27.0;
52290;PMS5003;39663;45.432;28.050;2022-07-31T03:03:47;25.0;24.0;
52290;PMS5003;39663;45.432;28.050;2022-07-31T03:04:19;30.0;28.0;
52290;PMS5003;39663;45.432;28.050;2022-07-31T03:04:51;26.0;26.0;
52290;PMS5003;39663;45.432;28.050;2022-07-31T03:05:22;27.0;26.0;
52290;PMS5003;39663;45.432;28.050;2022-07-31T03:05:54;27.0;27.0;
52290;PMS5003;39663;45.432;28.050;2022-07-31T03:06:26;30.0;28.0;
52290;PMS5003;39663;45.432;28.050;2022-07-31T03:06:57;28.0;24.0;
52290;PMS5003;39663;45.432;28.050;2022-07-31T03:07:29;25.0;25.0;
52290;PMS5003;39663;45.432;28.050;2022-07-31T03:08:00;24.0;22.0;
52290;PMS5003;39663;45.432;28.050;2022-07-31T03:08:32;28.0;25.0;
52290;PMS5003;39663;45.432;28.050;2022-07-31T03:09:04;24.0;24.0;
52290;PMS5003;39663;45.432;28.050;2022-07-31T03:09:35;31.0;25.0;
52290;PMS5003;39663;45.432;28.050;2022-07-31T03:10:07;28.0;26.0;
52290;PMS5003;39663;45.432;28.050;2022-07-31T03:10:39;34.0;30.0;
52290;PMS5003;39663;45.432;28.050;2022-07-31T03:11:11;24.0;24.0;
52290;PMS5003;39663;45.432;28.050;2022-07-31T03:11:42;26.0;26.0;
52290;PMS5003;39663;45.432;28.050;2022-07-31T03:12:14;27.0;23.0;
52290;PMS5003;39663;45.432;28.050;2022-07-31T03:12:46;32.0;29.0;
52290;PMS5003;39663;45.432;28.050;2022-07-31T03:13:21;24.0;24.0;
52290;PMS5003;39663;45.432;28.050;2022-07-31T03:13:57;25.0;24.0;
52290;PMS5003;39663;45.432;28.050;2022-07-31T03:14:31;28.0;27.0;
52290;PMS5003;39663;45.432;28.050;2022-07-31T03:15:04;25.0;24.0;
52290;PMS5003;39663;45.432;28.050;2022-07-31T03:15:38;25.0;24.0;
52290;PMS5003;39663;45.432;28.050;2022-07-31T03:16:11;28.0;24.0;
52290;PMS5003;39663;45.432;28.050;2022-07-31T03:16:44;28.0;27.0;
52290;PMS5003;39663;45.432;28.050;2022-07-31T03:17:18;27.0;26.0;
52290;PMS5003;39663;45.432;28.050;2022-07-31T03:17:50;32.0;26.0;
52290;PMS5003;39663;45.432;28.050;2022-07-31T03:18:22;25.0;24.0;
52290;PMS5003;39663;45.432;28.050;2022-07-31T03:18:56;25.0;24.0;
52290;PMS5003;39663;45.432;28.050;2022-07-31T03:19:28;22.0;22.0;
52290;PMS5003;39663;45.432;28.050;2022-07-31T03:20:00;29.0;28.0;
52290;PMS5003;39663;45.432;28.050;2022-07-31T03:20:31;27.0;24.0;
52290;PMS5003;39663;45.432;28.050;2022-07-31T03:21:04;23.0;23.0;
52290;PMS5003;39663;45.432;28.050;2022-07-31T03:21:36;23.0;23.0;
52290;PMS5003;39663;45.432;28.050;2022-07-31T03:22:13;28.0;25.0;
52290;PMS5003;39663;45.432;28.050;2022-07-31T03:22:51;24.0;24.0;
52290;PMS5003;39663;45.432;28.050;2022-07-31T03:23:24;29.0;24.0;
52290;PMS5003;39663;45.432;28.050;2022-07-31T03:23:57;28.0;25.0;
52290;PMS5003;39663;45.432;28.050;2022-07-31T03:24:30;30.0;30.0;
52290;PMS5003;39663;45.432;28.050;2022-07-31T03:25:02;22.0;22.0;
52290;PMS5003;39663;45.432;28.050;2022-07-31T03:25:36;27.0;26.0;
52290;PMS5003;39663;45.432;28.050;2022-07-31T03:26:09;23.0;22.0;
52290;PMS5003;39663;45.432;28.050;2022-07-31T03:26:41;32.0;29.0;
52290;PMS5003;39663;45.432;28.050;2022-07-31T03:27:12;30.0;27.0;
52290;PMS5003;39663;45.432;28.050;2022-07-31T03:27:45;26.0;26.0;
52290;PMS5003;39663;45.432;28.050;2022-07-31T03:28:18;24.0;24.0;
52290;PMS5003;39663;45.432;28.050;2022-07-31T03:28:51;26.0;25.0;
52290;PMS5003;39663;45.432;28.050;2022-07-31T03:29:23;29.0;27.0;
52290;PMS5003;39663;45.432;28.050;2022-07-31T03:29:55;25.0;24.0;
52290;PMS5003;39663;45.432;28.050;2022-07-31T03:30:26;24.0;23.0;
52290;PMS5003;39663;45.432;28.050;2022-07-31T03:30:57;30.0;29.0;
52290;PMS5003;39663;45.432;28.050;2022-07-31T03:31:29;28.0;28.0;
52290;PMS5003;39663;45.432;28.050;2022-07-31T03:32:00;32.0;29.0;
52290;PMS5003;39663;45.432;28.050;2022-07-31T03:32:32;24.0;24.0;